createdAt,value
2019-05-02T00:00:13.000Z,85
2019-05-02T00:01:38.000Z,85
2019-05-02T00:03:40.000Z,85
2019-05-02T00:05:07.000Z,85
2019-05-02T00:07:08.000Z,85
2019-05-02T00:08:32.000Z,85
2019-05-02T00:12:12.000Z,85
2019-05-02T00:13:01.000Z,85
2019-05-02T00:14:23.000Z,85
2019-05-02T00:16:28.000Z,85
2019-05-02T00:17:50.000Z,85
2019-05-02T00:19:54.000Z,85
2019-05-02T00:21:19.000Z,85
2019-05-02T00:23:23.000Z,84
2019-05-02T00:24:51.000Z,85
2019-05-02T00:26:56.000Z,85
2019-05-02T00:28:25.000Z,85
2019-05-02T00:30:32.000Z,85
2019-05-02T00:32:03.000Z,85
2019-05-02T00:34:12.000Z,84
2019-05-02T00:35:36.000Z,85
2019-05-02T00:37:48.000Z,85
2019-05-02T00:39:11.000Z,85
2019-05-02T00:41:23.000Z,86
2019-05-02T00:42:50.000Z,86
2019-05-02T00:45:01.000Z,86
2019-05-02T00:46:31.000Z,86
2019-05-02T00:48:37.000Z,86
2019-05-02T00:50:04.000Z,86
2019-05-02T00:52:14.000Z,86
2019-05-02T00:53:41.000Z,86
2019-05-02T00:55:50.000Z,86
2019-05-02T00:57:12.000Z,85
2019-05-02T00:59:27.000Z,85
2019-05-02T01:00:56.000Z,86
2019-05-02T01:02:58.000Z,86
2019-05-02T01:04:25.000Z,86
2019-05-02T01:06:36.000Z,86
2019-05-02T01:07:59.000Z,86
2019-05-02T01:10:06.000Z,86
2019-05-02T01:11:28.000Z,86
2019-05-02T01:15:10.000Z,85
2019-05-02T01:21:29.000Z,86
2019-05-02T01:22:51.000Z,86
2019-05-02T01:24:54.000Z,86
2019-05-02T01:26:16.000Z,86
2019-05-02T01:28:18.000Z,86
2019-05-02T01:29:40.000Z,86
2019-05-02T01:31:42.000Z,86
2019-05-02T01:33:04.000Z,86
2019-05-02T01:35:08.000Z,86
2019-05-02T01:36:30.000Z,87
2019-05-02T01:38:31.000Z,86
2019-05-02T01:39:55.000Z,87
2019-05-02T01:41:56.000Z,87
2019-05-02T01:43:25.000Z,87
2019-05-02T01:45:27.000Z,87
2019-05-02T01:46:50.000Z,87
2019-05-02T01:48:59.000Z,86
2019-05-02T01:50:21.000Z,86
2019-05-02T01:52:22.000Z,86
2019-05-02T01:53:47.000Z,86
2019-05-02T01:55:50.000Z,86
2019-05-02T01:57:19.000Z,86
2019-05-02T01:59:20.000Z,86
2019-05-02T02:00:43.000Z,86
2019-05-02T02:02:47.000Z,86
2019-05-02T02:04:12.000Z,86
2019-05-02T02:06:21.000Z,86
2019-05-02T02:07:43.000Z,86
2019-05-02T02:09:45.000Z,86
2019-05-02T02:11:08.000Z,86
2019-05-02T02:13:09.000Z,86
2019-05-02T02:14:31.000Z,86
2019-05-02T02:16:33.000Z,86
2019-05-02T02:18:03.000Z,86
2019-05-02T02:20:06.000Z,86
2019-05-02T02:21:37.000Z,87
2019-05-02T02:23:38.000Z,87
2019-05-02T02:25:00.000Z,87
2019-05-02T02:27:03.000Z,87
2019-05-02T02:28:27.000Z,86
2019-05-02T02:30:33.000Z,86
2019-05-02T02:31:56.000Z,86
2019-05-02T02:33:57.000Z,86
2019-05-02T02:35:20.000Z,86
2019-05-02T02:37:21.000Z,87
2019-05-02T02:38:44.000Z,87
2019-05-02T02:40:47.000Z,87
2019-05-02T02:42:11.000Z,87
2019-05-02T02:44:12.000Z,87
2019-05-02T02:45:35.000Z,87
2019-05-02T02:47:38.000Z,86
2019-05-02T02:49:00.000Z,86
2019-05-02T02:51:05.000Z,87
2019-05-02T02:52:30.000Z,87
2019-05-02T02:54:34.000Z,87
2019-05-02T02:56:07.000Z,87
2019-05-02T02:58:10.000Z,87
2019-05-02T02:59:33.000Z,87
2019-05-02T03:01:35.000Z,87
2019-05-02T03:02:57.000Z,87
2019-05-02T03:05:00.000Z,87
2019-05-02T03:06:25.000Z,87
2019-05-02T03:08:28.000Z,87
2019-05-02T03:09:52.000Z,87
2019-05-02T03:11:57.000Z,87
2019-05-02T03:13:26.000Z,87
2019-05-02T03:15:33.000Z,87
2019-05-02T03:16:57.000Z,87
2019-05-02T03:18:59.000Z,87
2019-05-02T03:20:22.000Z,88
2019-05-02T03:22:27.000Z,88
2019-05-02T03:23:51.000Z,88
2019-05-02T03:26:11.000Z,88
2019-05-02T03:27:40.000Z,88
2019-05-02T03:29:44.000Z,88
2019-05-02T03:31:08.000Z,88
2019-05-02T03:33:29.000Z,88
2019-05-02T03:34:55.000Z,88
2019-05-02T03:37:00.000Z,88
2019-05-02T03:38:34.000Z,88
2019-05-02T03:40:39.000Z,88
2019-05-02T03:42:11.000Z,88
2019-05-02T03:44:17.000Z,87
2019-05-02T03:45:55.000Z,87
2019-05-02T03:48:00.000Z,87
2019-05-02T03:49:24.000Z,87
2019-05-02T03:51:30.000Z,87
2019-05-02T03:52:53.000Z,87
2019-05-02T03:54:56.000Z,87
2019-05-02T03:56:22.000Z,87
2019-05-02T03:58:24.000Z,87
2019-05-02T03:59:57.000Z,87
2019-05-02T04:02:07.000Z,87
2019-05-02T04:03:31.000Z,87
2019-05-02T04:05:44.000Z,87
2019-05-02T04:07:13.000Z,87
2019-05-02T04:09:19.000Z,87
2019-05-02T04:10:45.000Z,87
2019-05-02T04:12:50.000Z,88
2019-05-02T04:16:32.000Z,87
2019-05-02T04:18:02.000Z,88
2019-05-02T04:20:22.000Z,88
2019-05-02T04:21:45.000Z,88
2019-05-02T04:23:52.000Z,88
2019-05-02T04:25:23.000Z,88
2019-05-02T04:27:40.000Z,88
2019-05-02T04:29:07.000Z,88
2019-05-02T04:31:11.000Z,88
2019-05-02T04:32:34.000Z,88
2019-05-02T04:34:42.000Z,88
2019-05-02T04:36:09.000Z,88
2019-05-02T04:38:27.000Z,88
2019-05-02T04:40:08.000Z,88
2019-05-02T04:42:17.000Z,88
2019-05-02T04:43:47.000Z,88
2019-05-02T04:46:03.000Z,88
2019-05-02T04:47:43.000Z,88
2019-05-02T04:50:04.000Z,88
2019-05-02T04:51:49.000Z,88
2019-05-02T04:54:09.000Z,89
2019-05-02T04:55:54.000Z,88
2019-05-02T04:58:17.000Z,88
2019-05-02T05:00:01.000Z,88
2019-05-02T05:02:19.000Z,88
2019-05-02T05:03:57.000Z,88
2019-05-02T05:06:04.000Z,88
2019-05-02T05:07:42.000Z,88
2019-05-02T05:09:55.000Z,88
2019-05-02T05:11:33.000Z,88
2019-05-02T05:13:40.000Z,88
2019-05-02T05:15:06.000Z,88
2019-05-02T05:17:18.000Z,87
2019-05-02T05:18:52.000Z,87
2019-05-02T05:21:02.000Z,88
2019-05-02T05:22:33.000Z,88
2019-05-02T05:24:55.000Z,88
2019-05-02T05:26:24.000Z,87
2019-05-02T05:28:33.000Z,87
2019-05-02T05:30:08.000Z,87
2019-05-02T05:32:20.000Z,87
2019-05-02T05:33:49.000Z,87
2019-05-02T05:35:57.000Z,87
2019-05-02T05:37:29.000Z,87
2019-05-02T05:39:33.000Z,87
2019-05-02T05:41:05.000Z,87
2019-05-02T05:43:20.000Z,87
2019-05-02T05:44:50.000Z,87
2019-05-02T05:47:02.000Z,87
2019-05-02T05:48:31.000Z,87
2019-05-02T05:50:45.000Z,87
2019-05-02T05:52:19.000Z,87
2019-05-02T05:54:25.000Z,87
2019-05-02T05:55:54.000Z,87
2019-05-02T05:58:13.000Z,87
2019-05-02T05:59:48.000Z,86
2019-05-02T06:02:01.000Z,86
2019-05-02T06:03:42.000Z,86
2019-05-02T06:05:54.000Z,86
2019-05-02T06:07:26.000Z,85
2019-05-02T06:09:40.000Z,86
2019-05-02T06:11:12.000Z,85
2019-05-02T06:13:27.000Z,86
2019-05-02T06:14:57.000Z,86
2019-05-02T06:22:27.000Z,85
2019-05-02T06:23:49.000Z,85
2019-05-02T06:25:50.000Z,85
2019-05-02T06:27:12.000Z,85
2019-05-02T06:29:13.000Z,84
2019-05-02T06:30:42.000Z,84
2019-05-02T06:32:44.000Z,84
2019-05-02T06:34:17.000Z,84
2019-05-02T06:36:18.000Z,84
2019-05-02T06:37:41.000Z,84
2019-05-02T06:39:51.000Z,84
2019-05-02T06:41:13.000Z,84
2019-05-02T06:43:21.000Z,83
2019-05-02T06:44:43.000Z,83
2019-05-02T06:46:45.000Z,83
2019-05-02T06:48:07.000Z,83
2019-05-02T06:50:08.000Z,83
2019-05-02T06:51:31.000Z,83
2019-05-02T06:53:33.000Z,83
2019-05-02T06:54:57.000Z,83
2019-05-02T06:57:00.000Z,83
2019-05-02T06:58:22.000Z,82
2019-05-02T07:00:23.000Z,82
2019-05-02T07:02:01.000Z,82
2019-05-02T07:04:02.000Z,82
2019-05-02T07:05:26.000Z,82
2019-05-02T07:07:29.000Z,83
2019-05-02T07:08:56.000Z,83
2019-05-02T07:11:01.000Z,82
2019-05-02T07:12:25.000Z,82
2019-05-02T07:14:29.000Z,82
2019-05-02T07:15:51.000Z,82
2019-05-02T07:17:54.000Z,82
2019-05-02T07:19:16.000Z,82
2019-05-02T07:21:18.000Z,82
2019-05-02T07:22:46.000Z,82
2019-05-02T07:24:49.000Z,81
2019-05-02T07:26:11.000Z,81
2019-05-02T07:28:21.000Z,81
2019-05-02T07:29:46.000Z,81
2019-05-02T07:31:47.000Z,80
2019-05-02T07:33:10.000Z,80
2019-05-02T07:35:13.000Z,80
2019-05-02T07:36:36.000Z,80
2019-05-02T07:38:40.000Z,79
2019-05-02T07:40:04.000Z,79
2019-05-02T07:42:07.000Z,79
2019-05-02T07:43:29.000Z,79
2019-05-02T07:45:32.000Z,79
2019-05-02T07:49:03.000Z,77
2019-05-02T07:50:27.000Z,77
2019-05-02T07:52:28.000Z,76
2019-05-02T07:53:50.000Z,74
2019-05-02T07:55:52.000Z,74
2019-05-02T07:57:15.000Z,74
2019-05-02T07:59:17.000Z,74
2019-05-02T08:00:40.000Z,74
2019-05-02T08:02:42.000Z,74
2019-05-02T08:04:05.000Z,74
2019-05-02T08:06:15.000Z,73
2019-05-02T08:07:40.000Z,72
2019-05-02T08:09:43.000Z,73
2019-05-02T08:11:08.000Z,73
2019-05-02T08:13:10.000Z,73
2019-05-02T08:14:40.000Z,73
2019-05-02T08:16:44.000Z,73
2019-05-02T08:18:07.000Z,73
2019-05-02T08:20:14.000Z,72
2019-05-02T08:21:45.000Z,71
2019-05-02T08:23:50.000Z,72
2019-05-02T08:25:14.000Z,72
2019-05-02T08:27:16.000Z,72
2019-05-02T08:28:42.000Z,72
2019-05-02T08:30:58.000Z,72
2019-05-02T08:32:25.000Z,70
2019-05-02T08:34:30.000Z,71
2019-05-02T08:35:54.000Z,69
2019-05-02T08:43:38.000Z,68
2019-05-02T08:45:07.000Z,69
2019-05-02T08:47:08.000Z,68
2019-05-02T08:48:40.000Z,68
2019-05-02T08:50:45.000Z,67
2019-05-02T08:52:07.000Z,67
2019-05-02T08:54:08.000Z,67
2019-05-02T08:55:30.000Z,67
2019-05-02T08:57:31.000Z,67
2019-05-02T08:58:58.000Z,67
2019-05-02T09:00:59.000Z,67
2019-05-02T09:02:21.000Z,67
2019-05-02T09:04:28.000Z,67
2019-05-02T09:05:52.000Z,66
2019-05-02T09:08:06.000Z,67
2019-05-02T09:09:35.000Z,66
2019-05-02T09:11:36.000Z,67
2019-05-02T09:12:58.000Z,66
2019-05-02T09:14:59.000Z,65
2019-05-02T09:18:28.000Z,66
2019-05-02T09:20:00.000Z,66
2019-05-02T09:22:11.000Z,65
2019-05-02T09:23:41.000Z,65
2019-05-02T09:25:46.000Z,65
2019-05-02T09:27:08.000Z,65
2019-05-02T09:29:09.000Z,66
2019-05-02T09:30:31.000Z,65
2019-05-02T09:32:33.000Z,64
2019-05-02T09:34:00.000Z,65
2019-05-02T09:36:04.000Z,65
2019-05-02T09:37:26.000Z,65
2019-05-02T09:39:27.000Z,66
2019-05-02T09:40:58.000Z,65
2019-05-02T09:43:00.000Z,65
2019-05-02T09:44:29.000Z,64
2019-05-02T09:46:31.000Z,64
2019-05-02T09:47:54.000Z,63
2019-05-02T09:50:07.000Z,63
2019-05-02T09:51:29.000Z,62
2019-05-02T09:53:33.000Z,63
2019-05-02T09:54:58.000Z,62
2019-05-02T09:56:58.000Z,63
2019-05-02T09:58:21.000Z,63
2019-05-02T10:00:24.000Z,62
2019-05-02T10:01:52.000Z,63
2019-05-02T10:03:57.000Z,61
2019-05-02T10:05:19.000Z,61
2019-05-02T10:07:20.000Z,61
2019-05-02T10:08:47.000Z,62
2019-05-02T10:10:48.000Z,63
2019-05-02T10:12:10.000Z,62
2019-05-02T10:14:14.000Z,61
2019-05-02T10:15:37.000Z,62
2019-05-02T10:17:39.000Z,61
2019-05-02T10:19:09.000Z,61
2019-05-02T10:21:15.000Z,61
2019-05-02T10:22:40.000Z,60
2019-05-02T10:24:44.000Z,61
2019-05-02T10:26:06.000Z,61
2019-05-02T10:28:09.000Z,61
2019-05-02T10:29:36.000Z,61
2019-05-02T10:31:39.000Z,61
2019-05-02T10:33:02.000Z,61
2019-05-02T10:35:06.000Z,61
2019-05-02T10:36:29.000Z,60
2019-05-02T10:38:31.000Z,60
2019-05-02T10:39:55.000Z,60
2019-05-02T10:42:00.000Z,59
2019-05-02T10:43:32.000Z,58
2019-05-02T10:45:35.000Z,59
2019-05-02T10:46:58.000Z,58
2019-05-02T10:49:00.000Z,57
2019-05-02T10:50:24.000Z,57
2019-05-02T10:52:30.000Z,58
2019-05-02T10:54:03.000Z,57
2019-05-02T10:56:04.000Z,58
2019-05-02T10:57:30.000Z,55
2019-05-02T10:59:37.000Z,54
2019-05-02T11:01:02.000Z,55
2019-05-02T11:03:04.000Z,55
2019-05-02T11:04:31.000Z,56
2019-05-02T11:06:36.000Z,56
2019-05-02T11:08:04.000Z,56
2019-05-02T11:10:09.000Z,56
2019-05-02T11:11:35.000Z,56
2019-05-02T11:13:37.000Z,56
2019-05-02T11:15:00.000Z,56
2019-05-02T11:17:05.000Z,58
2019-05-02T11:18:37.000Z,57
2019-05-02T11:20:45.000Z,56
2019-05-02T11:22:14.000Z,57
2019-05-02T11:24:21.000Z,59
2019-05-02T11:25:48.000Z,58
2019-05-02T11:27:56.000Z,58
2019-05-02T11:29:29.000Z,58
2019-05-02T11:31:33.000Z,58
2019-05-02T11:32:58.000Z,57
2019-05-02T11:35:10.000Z,58
2019-05-02T11:36:35.000Z,58
2019-05-02T11:40:12.000Z,58
2019-05-02T11:42:18.000Z,59
2019-05-02T11:44:33.000Z,58
2019-05-02T11:50:19.000Z,59
2019-05-02T11:51:41.000Z,58
2019-05-02T11:53:43.000Z,59
2019-05-02T11:55:05.000Z,58
2019-05-02T11:57:06.000Z,57
2019-05-02T11:58:28.000Z,58
2019-05-02T12:00:29.000Z,58
2019-05-02T12:01:51.000Z,58
2019-05-02T12:04:00.000Z,58
2019-05-02T12:05:25.000Z,57
2019-05-02T12:07:32.000Z,56
2019-05-02T12:08:55.000Z,58
2019-05-02T12:10:57.000Z,57
2019-05-02T12:12:19.000Z,57
2019-05-02T12:14:20.000Z,58
2019-05-02T12:15:42.000Z,58
2019-05-02T12:17:45.000Z,57
2019-05-02T12:19:07.000Z,58
2019-05-02T12:21:13.000Z,56
2019-05-02T12:22:35.000Z,56
2019-05-02T12:24:36.000Z,56
2019-05-02T12:26:09.000Z,56
2019-05-02T12:28:11.000Z,56
2019-05-02T12:29:34.000Z,57
2019-05-02T12:31:37.000Z,55
2019-05-02T12:32:59.000Z,55
2019-05-02T12:35:03.000Z,55
2019-05-02T12:36:27.000Z,56
2019-05-02T12:38:29.000Z,55
2019-05-02T12:39:51.000Z,55
2019-05-02T12:41:54.000Z,56
2019-05-02T12:43:17.000Z,54
2019-05-02T12:45:19.000Z,54
2019-05-02T12:46:44.000Z,54
2019-05-02T12:48:46.000Z,54
2019-05-02T12:50:09.000Z,53
2019-05-02T12:52:11.000Z,53
2019-05-02T12:53:35.000Z,53
2019-05-02T12:55:36.000Z,53
2019-05-02T12:56:59.000Z,53
2019-05-02T12:59:00.000Z,53
2019-05-02T13:07:11.000Z,52
2019-05-02T13:08:34.000Z,53
2019-05-02T13:10:35.000Z,52
2019-05-02T13:11:57.000Z,53
2019-05-02T13:14:00.000Z,52
2019-05-02T13:15:24.000Z,52
2019-05-02T13:17:25.000Z,53
2019-05-02T13:18:47.000Z,53
2019-05-02T13:20:48.000Z,53
2019-05-02T13:22:10.000Z,52
2019-05-02T13:24:16.000Z,53
2019-05-02T13:25:39.000Z,51
2019-05-02T13:27:43.000Z,52
2019-05-02T13:29:10.000Z,54
2019-05-02T13:31:12.000Z,52
2019-05-02T13:32:34.000Z,51
2019-05-02T13:34:37.000Z,51
2019-05-02T13:36:00.000Z,51
2019-05-02T13:36:56.000Z,49
2019-05-02T13:38:19.000Z,48
2019-05-02T13:40:20.000Z,45
2019-05-02T13:41:44.000Z,46
2019-05-02T13:43:45.000Z,46
2019-05-02T13:45:07.000Z,45
2019-05-02T13:47:08.000Z,46
2019-05-02T13:48:30.000Z,47
2019-05-02T13:50:33.000Z,48
2019-05-02T13:51:55.000Z,49
2019-05-02T13:53:56.000Z,48
2019-05-02T13:55:19.000Z,48
2019-05-02T13:57:22.000Z,46
2019-05-02T13:58:44.000Z,47
2019-05-02T14:00:47.000Z,48
2019-05-02T14:02:10.000Z,48
2019-05-02T14:04:14.000Z,48
2019-05-02T14:05:37.000Z,46
2019-05-02T14:07:38.000Z,45
2019-05-02T14:09:00.000Z,43
2019-05-02T14:11:03.000Z,43
2019-05-02T14:12:25.000Z,44
2019-05-02T14:14:26.000Z,45
2019-05-02T14:15:48.000Z,46
2019-05-02T14:17:49.000Z,45
2019-05-02T14:19:13.000Z,45
2019-05-02T14:21:35.000Z,46
2019-05-02T14:23:19.000Z,45
2019-05-02T14:25:28.000Z,44
2019-05-02T14:26:50.000Z,45
2019-05-02T14:28:53.000Z,44
2019-05-02T14:30:15.000Z,43
2019-05-02T14:32:17.000Z,43
2019-05-02T14:33:49.000Z,43
2019-05-02T14:35:50.000Z,41
2019-05-02T14:37:14.000Z,42
2019-05-02T14:39:16.000Z,43
2019-05-02T14:40:38.000Z,42
2019-05-02T14:42:39.000Z,42
2019-05-02T14:44:03.000Z,41
2019-05-02T14:46:05.000Z,43
2019-05-02T14:47:28.000Z,42
2019-05-02T14:49:31.000Z,42
2019-05-02T14:50:55.000Z,42
2019-05-02T14:52:56.000Z,42
2019-05-02T14:54:20.000Z,43
2019-05-02T14:56:24.000Z,42
2019-05-02T14:57:46.000Z,42
2019-05-02T15:01:17.000Z,43
2019-05-02T15:03:27.000Z,42
2019-05-02T15:04:52.000Z,42
2019-05-02T15:06:53.000Z,42
2019-05-02T15:08:17.000Z,42
2019-05-02T15:10:18.000Z,42
2019-05-02T15:11:40.000Z,43
2019-05-02T15:13:47.000Z,42
2019-05-02T15:15:12.000Z,43
2019-05-02T15:17:16.000Z,43
2019-05-02T15:18:38.000Z,44
2019-05-02T15:20:40.000Z,43
2019-05-02T15:22:06.000Z,42
2019-05-02T15:24:07.000Z,43
2019-05-02T15:25:32.000Z,43
2019-05-02T15:27:33.000Z,44
2019-05-02T15:29:05.000Z,45
2019-05-02T15:31:09.000Z,45
2019-05-02T15:32:35.000Z,46
2019-05-02T15:34:46.000Z,46
2019-05-02T15:36:09.000Z,46
2019-05-02T15:38:16.000Z,46
2019-05-02T15:42:27.000Z,46
2019-05-02T15:43:49.000Z,46
2019-05-02T15:45:53.000Z,46
2019-05-02T15:47:20.000Z,45
2019-05-02T15:49:27.000Z,46
2019-05-02T15:50:53.000Z,46
2019-05-02T15:53:00.000Z,46
2019-05-02T15:54:32.000Z,47
2019-05-02T15:56:36.000Z,47
2019-05-02T15:57:59.000Z,45
2019-05-02T16:00:02.000Z,46
2019-05-02T16:01:26.000Z,46
2019-05-02T16:03:28.000Z,46
2019-05-02T16:04:53.000Z,46
2019-05-02T16:07:04.000Z,45
2019-05-02T16:08:32.000Z,45
2019-05-02T16:12:07.000Z,46
2019-05-02T16:12:56.000Z,46
2019-05-02T16:14:24.000Z,46
2019-05-02T16:16:38.000Z,47
2019-05-02T16:18:10.000Z,48
2019-05-02T16:20:18.000Z,46
2019-05-02T16:21:40.000Z,46
2019-05-02T16:23:44.000Z,46
2019-05-02T16:25:13.000Z,46
2019-05-02T16:27:18.000Z,46
2019-05-02T16:28:51.000Z,46
2019-05-02T16:30:57.000Z,46
2019-05-02T16:32:23.000Z,46
2019-05-02T16:34:28.000Z,45
2019-05-02T16:36:00.000Z,45
2019-05-02T16:38:05.000Z,45
2019-05-02T16:39:27.000Z,45
2019-05-02T16:41:30.000Z,45
2019-05-02T16:43:00.000Z,45
2019-05-02T16:45:03.000Z,46
2019-05-02T16:46:33.000Z,45
2019-05-02T16:48:41.000Z,44
2019-05-02T16:50:10.000Z,43
2019-05-02T16:52:21.000Z,43
2019-05-02T16:53:48.000Z,44
2019-05-02T16:55:53.000Z,43
2019-05-02T16:57:26.000Z,44
2019-05-02T16:59:28.000Z,43
2019-05-02T17:01:02.000Z,43
2019-05-02T17:03:09.000Z,42
2019-05-02T17:04:37.000Z,42
2019-05-02T17:06:43.000Z,42
2019-05-02T17:08:07.000Z,43
2019-05-02T17:10:22.000Z,43
2019-05-02T17:11:50.000Z,43
2019-05-02T17:13:54.000Z,43
2019-05-02T17:15:21.000Z,43
2019-05-02T17:17:35.000Z,44
2019-05-02T17:19:05.000Z,45
2019-05-02T17:21:13.000Z,45
2019-05-02T17:22:42.000Z,45
2019-05-02T17:25:03.000Z,45
2019-05-02T17:26:33.000Z,46
2019-05-02T17:28:39.000Z,46
2019-05-02T17:30:18.000Z,47
2019-05-02T17:32:28.000Z,46
2019-05-02T17:33:57.000Z,47
2019-05-02T17:36:04.000Z,47
2019-05-02T17:37:34.000Z,47
2019-05-02T17:39:43.000Z,47
2019-05-02T17:41:17.000Z,48
2019-05-02T17:43:27.000Z,47
2019-05-02T17:44:56.000Z,47
2019-05-02T17:47:12.000Z,48
2019-05-02T17:48:44.000Z,47
2019-05-02T17:50:58.000Z,47
2019-05-02T17:52:29.000Z,48
2019-05-02T17:54:38.000Z,48
2019-05-02T17:56:08.000Z,48
2019-05-02T17:58:25.000Z,48
2019-05-02T17:59:55.000Z,49
2019-05-02T18:02:01.000Z,49
2019-05-02T18:03:30.000Z,49
2019-05-02T18:05:42.000Z,49
2019-05-02T18:07:11.000Z,49
2019-05-02T18:09:26.000Z,50
2019-05-02T18:11:02.000Z,50
2019-05-02T18:13:10.000Z,50
2019-05-02T18:14:39.000Z,50
2019-05-02T18:16:50.000Z,50
2019-05-02T18:18:27.000Z,49
2019-05-02T18:20:43.000Z,49
2019-05-02T18:22:14.000Z,49
2019-05-02T18:24:33.000Z,50
2019-05-02T18:26:14.000Z,50
2019-05-02T18:33:39.000Z,50
2019-05-02T18:35:04.000Z,50
2019-05-02T18:37:07.000Z,50
2019-05-02T18:38:29.000Z,50
2019-05-02T18:40:30.000Z,50
2019-05-02T18:41:54.000Z,50
2019-05-02T18:43:55.000Z,50
2019-05-02T18:45:18.000Z,51
2019-05-02T18:47:18.000Z,51
2019-05-02T18:48:44.000Z,51
2019-05-02T18:50:49.000Z,51
2019-05-02T18:52:14.000Z,51
2019-05-02T18:54:16.000Z,50
2019-05-02T18:55:38.000Z,50
2019-05-02T18:57:39.000Z,49
2019-05-02T18:59:01.000Z,50
2019-05-02T19:01:03.000Z,50
2019-05-02T19:02:26.000Z,50
2019-05-02T19:04:36.000Z,50
2019-05-02T19:06:02.000Z,50
2019-05-02T19:08:04.000Z,50
2019-05-02T19:09:26.000Z,50
2019-05-02T19:11:33.000Z,50
2019-05-02T19:12:58.000Z,50
2019-05-02T19:15:06.000Z,50
2019-05-02T19:16:29.000Z,50
2019-05-02T19:18:30.000Z,50
2019-05-02T19:19:54.000Z,51
2019-05-02T19:21:57.000Z,51
2019-05-02T19:23:19.000Z,51
2019-05-02T19:25:20.000Z,51
2019-05-02T19:26:45.000Z,51
2019-05-02T19:28:51.000Z,51
2019-05-02T19:30:14.000Z,51
2019-05-02T19:32:16.000Z,51
2019-05-02T19:33:45.000Z,51
2019-05-02T19:35:48.000Z,52
2019-05-02T19:37:15.000Z,52
2019-05-02T19:39:18.000Z,52
2019-05-02T19:40:43.000Z,52
2019-05-02T19:42:44.000Z,52
2019-05-02T19:44:06.000Z,52
2019-05-02T19:46:07.000Z,52
2019-05-02T19:47:30.000Z,52
2019-05-02T19:49:33.000Z,52
2019-05-02T19:50:55.000Z,53
2019-05-02T19:52:56.000Z,53
2019-05-02T19:54:26.000Z,53
2019-05-02T19:56:27.000Z,54
2019-05-02T19:58:03.000Z,54
2019-05-02T20:00:07.000Z,54
2019-05-02T20:01:32.000Z,54
2019-05-02T20:03:35.000Z,55
2019-05-02T20:04:59.000Z,55
2019-05-02T20:07:02.000Z,55
2019-05-02T20:08:28.000Z,55
2019-05-02T20:10:31.000Z,55
2019-05-02T20:11:57.000Z,55
2019-05-02T20:14:00.000Z,56
2019-05-02T20:15:29.000Z,56
2019-05-02T20:17:34.000Z,56
2019-05-02T20:18:56.000Z,56
2019-05-02T20:20:58.000Z,57
2019-05-02T20:22:22.000Z,57
2019-05-02T20:24:26.000Z,57
2019-05-02T20:25:49.000Z,57
2019-05-02T20:27:54.000Z,57
2019-05-02T20:29:18.000Z,57
2019-05-02T20:31:21.000Z,58
2019-05-02T20:32:47.000Z,58
2019-05-02T20:34:49.000Z,58
2019-05-02T20:36:13.000Z,58
2019-05-02T20:38:17.000Z,58
2019-05-02T20:39:41.000Z,58
2019-05-02T20:41:45.000Z,59
2019-05-02T20:43:10.000Z,59
2019-05-02T20:45:21.000Z,59
2019-05-02T20:46:46.000Z,59
2019-05-02T20:48:48.000Z,59
2019-05-02T20:50:11.000Z,60
2019-05-02T20:52:13.000Z,60
2019-05-02T20:53:37.000Z,60
2019-05-02T20:55:40.000Z,60
2019-05-02T20:57:04.000Z,60
2019-05-02T20:59:06.000Z,61
2019-05-02T21:00:33.000Z,61
2019-05-02T21:02:39.000Z,61
2019-05-02T21:04:03.000Z,62
2019-05-02T21:06:09.000Z,62
2019-05-02T21:07:36.000Z,62
2019-05-02T21:11:13.000Z,63
2019-05-02T21:17:34.000Z,65
2019-05-02T21:18:56.000Z,65
2019-05-02T21:20:57.000Z,66
2019-05-02T21:22:20.000Z,67
2019-05-02T21:24:23.000Z,67
2019-05-02T21:25:45.000Z,67
2019-05-02T21:27:46.000Z,68
2019-05-02T21:29:08.000Z,68
2019-05-02T21:31:08.000Z,69
2019-05-02T21:32:31.000Z,69
2019-05-02T21:34:33.000Z,69
2019-05-02T21:35:55.000Z,70
2019-05-02T21:37:57.000Z,70
2019-05-02T21:39:19.000Z,70
2019-05-02T21:41:20.000Z,70
2019-05-02T21:42:44.000Z,70
2019-05-02T21:44:45.000Z,70
2019-05-02T21:46:08.000Z,70
2019-05-02T21:48:09.000Z,71
2019-05-02T21:49:31.000Z,71
2019-05-02T21:51:32.000Z,72
2019-05-02T21:52:54.000Z,72
2019-05-02T21:54:56.000Z,72
2019-05-02T21:56:18.000Z,72
2019-05-02T21:58:19.000Z,73
2019-05-02T21:59:45.000Z,73
2019-05-02T22:01:46.000Z,74
2019-05-02T22:03:08.000Z,74
2019-05-02T22:05:09.000Z,75
2019-05-02T22:06:34.000Z,75
2019-05-02T22:08:37.000Z,75
2019-05-02T22:09:59.000Z,75
2019-05-02T22:12:01.000Z,76
2019-05-02T22:13:26.000Z,76
2019-05-02T22:15:27.000Z,76
2019-05-02T22:16:49.000Z,76
2019-05-02T22:18:50.000Z,76
2019-05-02T22:20:14.000Z,76
2019-05-02T22:22:16.000Z,76
2019-05-02T22:23:38.000Z,76
2019-05-02T22:25:39.000Z,75
2019-05-02T22:27:03.000Z,75
2019-05-02T22:29:04.000Z,75
2019-05-02T22:30:28.000Z,75
2019-05-02T22:32:31.000Z,75
2019-05-02T22:33:54.000Z,75
2019-05-02T22:35:56.000Z,76
2019-05-02T22:37:20.000Z,76
2019-05-02T22:39:25.000Z,76
2019-05-02T22:40:48.000Z,76
2019-05-02T22:42:51.000Z,76
2019-05-02T22:44:15.000Z,76
2019-05-02T22:46:15.000Z,76
2019-05-02T22:47:38.000Z,76
2019-05-02T22:49:39.000Z,76
2019-05-02T22:51:03.000Z,76
2019-05-02T22:53:06.000Z,76
2019-05-02T22:54:30.000Z,76
2019-05-02T22:56:35.000Z,76
2019-05-02T22:57:59.000Z,76
2019-05-02T23:00:01.000Z,76
2019-05-02T23:01:27.000Z,76
2019-05-02T23:03:29.000Z,77
2019-05-02T23:04:55.000Z,76
2019-05-02T23:06:56.000Z,76
2019-05-02T23:08:19.000Z,76
2019-05-02T23:10:22.000Z,76
2019-05-02T23:11:44.000Z,76
2019-05-02T23:13:45.000Z,76
2019-05-02T23:15:08.000Z,76
2019-05-02T23:17:11.000Z,75
2019-05-02T23:18:39.000Z,75
2019-05-02T23:22:14.000Z,75
2019-05-02T23:22:47.000Z,75
2019-05-02T23:24:11.000Z,75
2019-05-02T23:26:15.000Z,76
2019-05-02T23:27:38.000Z,76
2019-05-02T23:29:40.000Z,76
2019-05-02T23:31:05.000Z,76
2019-05-02T23:33:11.000Z,76
2019-05-02T23:34:38.000Z,77
2019-05-02T23:36:45.000Z,77
2019-05-02T23:38:07.000Z,77
2019-05-02T23:40:14.000Z,77
2019-05-02T23:41:42.000Z,77
2019-05-02T23:43:44.000Z,77
2019-05-02T23:45:10.000Z,77
2019-05-02T23:47:14.000Z,77
2019-05-02T23:48:40.000Z,77
2019-05-02T23:50:45.000Z,77
2019-05-02T23:52:09.000Z,77
2019-05-02T23:54:13.000Z,77
2019-05-02T23:55:42.000Z,77
2019-05-02T23:57:45.000Z,77
2019-05-02T23:59:11.000Z,78
